Time;durP1;ratioP1;P1;durP2;ratioP2;P2;SDS_P1;SDS_P2;PMS_P1;PMS_P2;Temp;Humidity;BMP_temperature;BMP_pressure;BME280_temperature;BME280_humidity;BME280_pressure;Samples;Min_cycle;Max_cycle;Signal;HPM_P1;HPM_P2
2022/05/08 00:02:16;;;;;;;41.28;7.63;;;;;;;-149.78;100.00;50330.63;5072495;28;20379;-71
2022/05/08 00:04:42;;;;;;;31.92;7.15;;;;;;;-149.78;100.00;50340.41;5073364;28;20105;-70
2022/05/08 00:07:07;;;;;;;34.53;9.50;;;;;;;-149.78;100.00;50303.25;5072476;28;20032;-70
2022/05/08 00:09:34;;;;;;;32.33;8.63;;;;;;;-149.78;100.00;50336.50;5073449;28;20103;-70
2022/05/08 00:12:00;;;;;;;36.58;8.55;;;;;;;-149.78;100.00;50299.34;5073402;28;20045;-71
2022/05/08 00:14:25;;;;;;;36.30;8.80;;;;;;;-149.78;100.00;50350.19;5073487;28;20037;-71
2022/05/08 00:16:51;;;;;;;34.05;8.75;;;;;;;-149.78;100.00;50307.16;5073390;28;20345;-70
2022/05/08 00:19:17;;;;;;;44.47;8.45;;;;;;;-149.78;100.00;50324.75;5071931;28;20029;-70
2022/05/08 00:21:43;;;;;;;27.70;7.38;;;;;;;-149.78;100.00;50281.75;5073089;28;20032;-70
2022/05/08 00:24:09;;;;;;;34.42;7.45;;;;;;;-149.78;100.00;50326.72;5073098;28;20103;-70
2022/05/08 00:26:35;;;;;;;28.92;7.60;;;;;;;-149.78;100.00;50354.09;5073052;28;20039;-70
2022/05/08 00:29:01;;;;;;;30.75;8.25;;;;;;;-149.78;100.00;50322.81;5071820;28;20127;-71
2022/05/08 00:31:26;;;;;;;27.05;7.13;;;;;;;-149.78;100.00;50305.22;5073013;28;20490;-70
2022/05/08 00:33:52;;;;;;;28.45;6.88;;;;;;;-149.78;100.00;50303.25;5071616;28;20115;-71
2022/05/08 00:36:19;;;;;;;25.48;6.72;;;;;;;-149.78;100.00;50346.28;5071693;28;20499;-71
2022/05/08 00:38:44;;;;;;;30.42;7.68;;;;;;;-149.78;100.00;50311.06;5071621;28;20060;-70
2022/05/08 00:41:10;;;;;;;41.30;7.78;;;;;;;-149.78;100.00;50314.97;5072493;28;20095;-70
2022/05/08 00:43:40;;;;;;;27.73;7.00;;;;;;;-149.78;100.00;50322.81;5071649;28;20036;-70
2022/05/08 00:46:08;;;;;;;32.35;6.88;;;;;;;-149.78;100.00;50326.72;5072337;28;20037;-71
2022/05/08 00:48:35;;;;;;;30.88;7.03;;;;;;;-149.78;100.00;50314.97;5072693;28;20033;-71
2022/05/08 00:51:03;;;;;;;35.08;7.38;;;;;;;-149.78;100.00;50287.59;5072554;28;20622;-70
2022/05/08 00:53:41;;;;;;;34.50;7.97;;;;;;;-149.78;100.00;50295.44;5071471;28;20376;-70
2022/05/08 00:56:10;;;;;;;32.63;7.00;;;;;;;-149.78;100.00;50320.84;5069901;28;20154;-71
2022/05/08 00:58:38;;;;;;;30.48;7.72;;;;;;;-149.78;100.00;50322.81;5052411;28;20039;-71
2022/05/08 01:01:04;;;;;;;32.17;7.07;;;;;;;-149.78;100.00;50293.47;5051134;28;20040;-71
2022/05/08 01:03:30;;;;;;;35.97;6.88;;;;;;;-149.78;100.00;50311.06;5052426;28;20041;-71
2022/05/08 01:05:57;;;;;;;36.47;7.57;;;;;;;-149.78;100.00;50311.06;5052312;28;20116;-70
2022/05/08 01:08:24;;;;;;;29.85;7.65;;;;;;;-149.78;100.00;50314.97;5050748;28;20601;-71
2022/05/08 01:10:53;;;;;;;28.40;7.78;;;;;;;-149.78;100.00;50307.16;5052261;28;20119;-70
2022/05/08 01:13:19;;;;;;;37.55;7.50;;;;;;;-149.78;100.00;50342.38;5055778;28;20039;-70
2022/05/08 01:15:46;;;;;;;32.38;8.52;;;;;;;-149.78;100.00;50283.69;5072110;28;20114;-70
2022/05/08 01:18:14;;;;;;;35.88;6.75;;;;;;;-149.78;100.00;50342.38;5072378;28;20062;-71
2022/05/08 01:20:41;;;;;;;33.85;7.32;;;;;;;-149.78;100.00;50330.63;5054157;28;20039;-71
2022/05/08 01:23:07;;;;;;;32.83;7.50;;;;;;;-149.78;100.00;50311.06;5072215;28;20039;-71
2022/05/08 01:25:34;;;;;;;35.28;8.20;;;;;;;-149.78;100.00;50322.81;5072290;28;20040;-70
2022/05/08 01:28:03;;;;;;;29.25;8.00;;;;;;;-149.78;100.00;50301.28;5070842;28;20043;-71
2022/05/08 01:30:29;;;;;;;37.50;7.63;;;;;;;-149.78;100.00;50297.38;5072225;28;20035;-71
2022/05/08 01:32:58;;;;;;;38.15;8.35;;;;;;;-149.78;100.00;50322.81;5071991;28;20067;-70
2022/05/08 01:35:24;;;;;;;51.50;8.57;;;;;;;-149.78;100.00;50326.72;5054636;28;20039;-71
2022/05/08 01:37:51;;;;;;;35.55;7.70;;;;;;;-149.78;100.00;50295.44;5071934;28;20032;-70
2022/05/08 01:40:17;;;;;;;44.10;9.05;;;;;;;-149.78;100.00;50314.97;5071779;28;20123;-71
2022/05/08 01:42:44;;;;;;;31.55;8.07;;;;;;;-149.78;100.00;50350.19;5070514;28;20037;-70
2022/05/08 01:45:11;;;;;;;38.67;8.05;;;;;;;-149.78;100.00;50313.03;5070697;28;20430;-70
2022/05/08 01:50:23;;;;;;;35.97;8.25;;;;;;;-149.78;100.00;50311.06;5055800;28;20028;-71
2022/05/08 01:52:49;;;;;;;38.67;8.27;;;;;;;-149.78;100.00;50350.19;5053739;28;20485;-71
2022/05/08 01:55:15;;;;;;;37.90;8.13;;;;;;;-149.78;100.00;50326.72;5068897;28;20102;-71
2022/05/08 01:57:41;;;;;;;40.60;8.82;;;;;;;-149.78;100.00;50330.63;5070598;28;20484;-70
2022/05/08 02:00:08;;;;;;;42.22;8.38;;;;;;;-149.78;100.00;50330.63;5075756;28;20479;-71
2022/05/08 02:02:34;;;;;;;44.30;8.45;;;;;;;-149.78;100.00;50330.63;5075923;28;20032;-71
2022/05/08 02:05:01;;;;;;;38.90;9.23;;;;;;;-149.78;100.00;50358.00;5074545;28;20528;-71
2022/05/08 02:07:28;;;;;;;41.08;9.20;;;;;;;-149.78;100.00;50344.31;5075783;28;20055;-71
2022/05/08 02:09:53;;;;;;;36.25;8.63;;;;;;;-149.78;100.00;50295.44;5074562;28;20028;-70
2022/05/08 02:12:19;;;;;;;37.47;9.18;;;;;;;-149.78;100.00;50268.03;5075782;28;20495;-71
2022/05/08 02:14:45;;;;;;;34.30;7.72;;;;;;;-149.78;100.00;50307.16;5067979;28;20044;-70
2022/05/08 02:17:12;;;;;;;34.67;7.10;;;;;;;-149.78;100.00;50330.63;5077714;28;20369;-70
2022/05/08 02:19:38;;;;;;;33.53;7.30;;;;;;;-149.78;100.00;50330.63;5075194;28;20033;-70
2022/05/08 02:22:05;;;;;;;27.17;7.22;;;;;;;-149.78;100.00;50334.53;5074288;28;20051;-70
2022/05/08 02:24:30;;;;;;;38.33;7.72;;;;;;;-149.78;100.00;50322.81;5050972;28;20040;-71
2022/05/08 02:26:56;;;;;;;39.63;8.00;;;;;;;-149.78;100.00;50342.38;5068404;28;20067;-70
2022/05/08 02:29:22;;;;;;;43.83;7.82;;;;;;;-149.78;100.00;50322.81;5075130;28;20032;-71
2022/05/08 02:31:47;;;;;;;34.33;8.88;;;;;;;-149.78;100.00;50313.03;5074787;28;20093;-70
2022/05/08 02:34:13;;;;;;;38.55;7.65;;;;;;;-149.78;100.00;50311.06;5073905;28;20041;-71
2022/05/08 02:36:39;;;;;;;27.00;7.82;;;;;;;-149.78;100.00;50346.28;5075123;28;20032;-71
2022/05/08 02:39:04;;;;;;;26.83;7.78;;;;;;;-149.78;100.00;50311.06;5073763;28;20044;-71
2022/05/08 02:41:30;;;;;;;36.22;7.93;;;;;;;-149.78;100.00;50287.59;5075017;28;20083;-71
2022/05/08 02:43:56;;;;;;;32.08;8.48;;;;;;;-149.78;100.00;50342.38;5057132;28;20535;-70
2022/05/08 02:46:22;;;;;;;39.22;8.02;;;;;;;-149.78;100.00;50342.38;5073913;28;20426;-71
2022/05/08 02:48:48;;;;;;;28.83;7.55;;;;;;;-149.78;100.00;50295.44;5074966;28;20043;-71
2022/05/08 02:51:14;;;;;;;24.75;7.07;;;;;;;-149.78;100.00;50326.72;5074873;28;20407;-70
2022/05/08 02:53:39;;;;;;;32.22;7.05;;;;;;;-149.78;100.00;50328.69;5074817;28;20048;-71
2022/05/08 02:58:49;;;;;;;30.58;6.93;;;;;;;-149.78;100.00;50311.06;5074789;28;20036;-71
2022/05/08 03:01:14;;;;;;;33.75;7.10;;;;;;;-149.78;100.00;50320.84;5074668;28;20035;-71
2022/05/08 03:03:40;;;;;;;39.40;7.68;;;;;;;-149.78;100.00;50334.53;5073354;28;20086;-70
2022/05/08 03:06:06;;;;;;;25.02;6.18;;;;;;;-149.78;100.00;50338.44;5073190;28;20032;-71
2022/05/08 03:08:32;;;;;;;33.70;7.30;;;;;;;-149.78;100.00;50332.59;5072539;28;20029;-71
2022/05/08 03:13:43;;;;;;;30.25;6.53;;;;;;;-149.78;100.00;50338.44;5074571;28;20067;-71
2022/05/08 03:16:11;;;;;;;29.95;6.90;;;;;;;-149.78;100.00;50326.72;5056593;28;20464;-71
2022/05/08 03:18:41;;;;;;;28.67;6.63;;;;;;;-149.78;100.00;50303.25;5056730;28;20369;-71
2022/05/08 03:21:10;;;;;;;30.15;8.15;;;;;;;-149.78;100.00;50338.44;5073292;28;20479;-71
2022/05/08 03:23:36;;;;;;;27.33;6.95;;;;;;;-149.78;100.00;50326.72;5074330;28;20047;-70
2022/05/08 03:26:04;;;;;;;28.85;7.90;;;;;;;-149.78;100.00;50295.44;5073151;28;20538;-71
2022/05/08 03:28:31;;;;;;;26.38;6.70;;;;;;;-149.78;100.00;50356.06;5074426;28;20403;-70
2022/05/08 03:30:59;;;;;;;36.70;6.72;;;;;;;-149.78;100.00;50311.06;5074322;28;20020;-70
2022/05/08 03:33:26;;;;;;;37.15;6.63;;;;;;;-149.78;100.00;50330.63;5074316;28;20025;-71
2022/05/08 03:35:52;;;;;;;31.83;7.25;;;;;;;-149.78;100.00;50326.72;5072907;28;20040;-71
2022/05/08 03:38:20;;;;;;;27.98;7.25;;;;;;;-149.78;100.00;50346.28;5072980;28;20033;-70
2022/05/08 03:40:46;;;;;;;27.35;8.43;;;;;;;-149.78;100.00;50291.50;5066562;28;20072;-70
2022/05/08 03:43:11;;;;;;;26.20;7.20;;;;;;;-149.78;100.00;50369.75;5054047;28;20041;-70
2022/05/08 03:45:37;;;;;;;31.35;6.40;;;;;;;-149.78;100.00;50356.06;5054027;28;20029;-71
2022/05/08 03:48:03;;;;;;;37.13;7.13;;;;;;;-149.78;100.00;50328.69;5036065;28;20069;-71
2022/05/08 03:50:30;;;;;;;29.10;6.30;;;;;;;-149.78;100.00;50344.31;5052630;28;20079;-71
2022/05/08 03:53:01;;;;;;;29.80;5.43;;;;;;;-149.78;100.00;50307.16;5067647;28;20107;-71
2022/05/08 03:55:27;;;;;;;26.77;6.17;;;;;;;-149.78;100.00;50365.84;5052457;28;20132;-71
2022/05/08 03:57:53;;;;;;;29.25;5.50;;;;;;;-149.78;100.00;50334.53;5052518;28;20116;-71
2022/05/08 04:00:19;;;;;;;34.05;6.20;;;;;;;-149.78;100.00;50342.38;5066865;28;20136;-71
2022/05/08 04:02:45;;;;;;;27.08;5.53;;;;;;;-149.78;100.00;50354.09;5072271;28;20070;-70
2022/05/08 04:05:12;;;;;;;31.00;5.55;;;;;;;-149.78;100.00;50338.44;5073619;28;20508;-71
2022/05/08 04:07:37;;;;;;;21.48;6.50;;;;;;;-149.78;100.00;50313.03;5073471;28;20116;-71
2022/05/08 04:10:03;;;;;;;26.55;5.40;;;;;;;-149.78;100.00;50338.44;5073444;28;20039;-71
2022/05/08 04:12:29;;;;;;;29.20;7.70;;;;;;;-149.78;100.00;50361.91;5073494;28;20039;-71
2022/05/08 04:14:55;;;;;;;27.50;5.70;;;;;;;-149.78;100.00;50322.81;5072079;28;20443;-70
2022/05/08 04:17:20;;;;;;;27.77;6.82;;;;;;;-149.78;100.00;50336.50;5073345;28;20376;-71
2022/05/08 04:19:48;;;;;;;23.45;5.78;;;;;;;-149.78;100.00;50350.19;5072094;28;20040;-70
2022/05/08 04:24:59;;;;;;;17.92;5.03;;;;;;;-149.78;100.00;50363.88;5072119;28;20037;-71
2022/05/08 04:27:24;;;;;;;24.67;5.63;;;;;;;-149.78;100.00;50356.06;5073294;28;20044;-70
2022/05/08 04:29:50;;;;;;;24.27;5.97;;;;;;;-149.78;100.00;50381.47;5072870;28;20029;-70
2022/05/08 04:32:16;;;;;;;28.33;6.03;;;;;;;-149.78;100.00;50358.00;5071911;28;20028;-71
2022/05/08 04:34:42;;;;;;;17.38;5.65;;;;;;;-149.78;100.00;50359.97;5071661;28;20120;-70
2022/05/08 04:37:09;;;;;;;26.95;6.22;;;;;;;-149.78;100.00;50371.69;5074898;28;20479;-70
2022/05/08 04:39:35;;;;;;;23.88;5.88;;;;;;;-149.78;100.00;50369.75;5092950;28;22206;-70
2022/05/08 04:42:01;;;;;;;25.13;5.85;;;;;;;-149.78;100.00;50385.38;5091868;28;20043;-70
2022/05/08 04:44:27;;;;;;;30.50;5.65;;;;;;;-149.78;100.00;50342.38;5093034;28;20043;-70
2022/05/08 04:46:53;;;;;;;24.05;6.43;;;;;;;-149.78;100.00;50350.19;5093006;28;20035;-70
2022/05/08 04:49:19;;;;;;;23.27;5.78;;;;;;;-149.78;100.00;50322.81;5093063;28;20032;-70
2022/05/08 04:51:45;;;;;;;26.45;5.82;;;;;;;-149.78;100.00;50344.31;5092922;28;20462;-70
2022/05/08 04:54:10;;;;;;;27.10;6.32;;;;;;;-149.78;100.00;50401.03;5092973;28;20057;-70
2022/05/08 04:56:36;;;;;;;31.92;6.32;;;;;;;-149.78;100.00;50358.00;5091730;28;20028;-70
2022/05/08 04:59:02;;;;;;;41.08;7.85;;;;;;;-149.78;100.00;50350.19;5088964;28;20119;-70
2022/05/08 05:01:28;;;;;;;35.40;7.13;;;;;;;-149.78;100.00;50334.53;5054481;28;20387;-70
2022/05/08 05:03:55;;;;;;;24.10;5.93;;;;;;;-149.78;100.00;50342.38;5070854;28;20040;-70
2022/05/08 05:06:20;;;;;;;28.63;6.72;;;;;;;-149.78;100.00;50338.44;5072263;28;20516;-70
2022/05/08 05:08:46;;;;;;;15.88;5.38;;;;;;;-149.78;100.00;50389.31;5071962;28;20032;-70
2022/05/08 05:11:12;;;;;;;34.47;6.53;;;;;;;-149.78;100.00;50344.31;5072215;28;20028;-70
2022/05/08 05:13:38;;;;;;;27.17;6.80;;;;;;;-149.78;100.00;50314.97;5072348;28;20089;-70
2022/05/08 05:16:05;;;;;;;31.92;6.85;;;;;;;-149.78;100.00;50350.19;5072239;28;20037;-70
2022/05/08 05:18:31;;;;;;;27.20;6.70;;;;;;;-149.78;100.00;50354.09;5071035;28;20043;-70
2022/05/08 05:20:56;;;;;;;30.67;6.90;;;;;;;-149.78;100.00;50354.09;5072152;28;20364;-70
2022/05/08 05:23:22;;;;;;;30.13;6.05;;;;;;;-149.78;100.00;50314.97;5057834;28;20032;-70
2022/05/08 05:25:49;;;;;;;27.90;7.00;;;;;;;-149.78;100.00;50365.84;5091219;28;20036;-70
2022/05/08 05:28:15;;;;;;;22.38;6.20;;;;;;;-149.78;100.00;50346.28;5091137;28;20067;-70
2022/05/08 05:30:41;;;;;;;26.92;6.78;;;;;;;-149.78;100.00;50354.09;5090744;28;20114;-70
2022/05/08 05:33:07;;;;;;;29.98;6.25;;;;;;;-149.78;100.00;50330.63;5091206;28;20417;-70
2022/05/08 05:35:37;;;;;;;25.50;6.13;;;;;;;-149.78;100.00;50338.44;5092219;28;20036;-70
2022/05/08 05:38:03;;;;;;;27.02;7.25;;;;;;;-149.78;100.00;50287.59;5092003;28;20039;-70
2022/05/08 05:40:29;;;;;;;30.50;7.18;;;;;;;-149.78;100.00;50342.38;5090561;28;20047;-70
2022/05/08 05:42:59;;;;;;;27.80;6.68;;;;;;;-149.78;100.00;50342.38;5091818;28;20055;-70
2022/05/08 05:45:26;;;;;;;29.70;5.80;;;;;;;-149.78;100.00;50350.19;5090779;28;20032;-70
2022/05/08 05:47:54;;;;;;;32.67;6.82;;;;;;;-149.78;100.00;50318.91;5092002;28;20036;-70
2022/05/08 05:50:24;;;;;;;26.92;6.90;;;;;;;-149.78;100.00;50314.97;5090722;28;20067;-70
2022/05/08 05:52:51;;;;;;;23.98;6.13;;;;;;;-149.78;100.00;50295.44;5091820;28;20040;-70
2022/05/08 05:55:18;;;;;;;37.65;7.07;;;;;;;-149.78;100.00;50326.72;5091948;28;20111;-70
2022/05/08 05:57:44;;;;;;;27.55;6.57;;;;;;;-149.78;100.00;50305.22;5090630;28;20119;-70
2022/05/08 06:00:12;;;;;;;20.00;5.38;;;;;;;-149.78;100.00;50322.81;5060393;28;20433;-70
2022/05/08 06:02:40;;;;;;;34.55;6.22;;;;;;;-149.78;100.00;50338.44;5070608;28;20032;-70
2022/05/08 06:05:10;;;;;;;25.05;5.40;;;;;;;-149.78;100.00;50307.16;5071523;28;20039;-70
2022/05/08 06:07:37;;;;;;;21.58;5.78;;;;;;;-149.78;100.00;50336.50;5071758;28;20086;-70
2022/05/08 06:10:05;;;;;;;25.25;5.75;;;;;;;-149.78;100.00;50320.84;5071667;28;20110;-70
2022/05/08 06:12:32;;;;;;;27.05;5.05;;;;;;;-149.78;100.00;50348.22;5071789;28;20047;-70
2022/05/08 06:14:59;;;;;;;23.60;5.53;;;;;;;-149.78;100.00;50361.91;5071584;28;20040;-70
2022/05/08 06:17:25;;;;;;;28.60;6.90;;;;;;;-149.78;100.00;50318.91;5071780;28;20057;-70
2022/05/08 06:19:51;;;;;;;27.80;6.63;;;;;;;-149.78;100.00;50318.91;5071464;28;20478;-70
2022/05/08 06:22:16;;;;;;;28.48;5.65;;;;;;;-149.78;100.00;50307.16;5071785;28;20500;-70
2022/05/08 06:24:42;;;;;;;21.17;5.18;;;;;;;-149.78;100.00;50299.34;5086231;28;20066;-70
2022/05/08 06:27:08;;;;;;;24.83;5.38;;;;;;;-149.78;100.00;50330.63;5090410;28;20074;-70
2022/05/08 06:29:34;;;;;;;27.60;5.07;;;;;;;-149.78;100.00;50365.84;5090515;28;20399;-70
2022/05/08 06:32:00;;;;;;;28.42;5.25;;;;;;;-149.78;100.00;50295.44;5073591;28;20047;-70
2022/05/08 06:34:29;;;;;;;27.63;5.72;;;;;;;-149.78;100.00;50338.44;5091777;28;20039;-70
2022/05/08 06:36:55;;;;;;;34.10;5.78;;;;;;;-149.78;100.00;50307.16;5044405;28;20067;-70
2022/05/08 06:39:21;;;;;;;23.17;5.15;;;;;;;-149.78;100.00;50338.44;5056678;28;20029;-70
2022/05/08 06:41:48;;;;;;;16.85;5.20;;;;;;;-149.78;100.00;50326.72;5055925;28;20047;-70
2022/05/08 06:44:14;;;;;;;29.02;5.00;;;;;;;-149.78;100.00;50281.75;5063147;28;20117;-70
2022/05/08 06:46:40;;;;;;;26.70;4.95;;;;;;;-149.78;100.00;50299.34;5057223;28;20570;-70
2022/05/08 06:49:06;;;;;;;25.35;5.35;;;;;;;-149.78;100.00;50291.50;5062092;28;20025;-70
2022/05/08 06:51:36;;;;;;;20.52;4.72;;;;;;;-149.78;100.00;50291.50;5055341;28;20053;-70
2022/05/08 06:54:02;;;;;;;19.60;4.82;;;;;;;-149.78;100.00;50299.34;5066389;28;20055;-70
2022/05/08 06:56:30;;;;;;;36.80;5.22;;;;;;;-149.78;100.00;50311.06;5074056;28;20048;-69
2022/05/08 07:01:43;;;;;;;24.77;4.07;;;;;;;-149.78;100.00;50307.16;5060858;28;20052;-72
2022/05/08 07:04:11;;;;;;;22.42;5.70;;;;;;;-149.78;100.00;50303.25;5069220;28;20523;-73
2022/05/08 07:06:39;;;;;;;18.83;4.45;;;;;;;-149.78;100.00;50303.25;5061640;28;20395;-71
2022/05/08 07:09:06;;;;;;;17.58;4.50;;;;;;;-149.78;100.00;50307.16;5063261;28;20052;-71
2022/05/08 07:11:32;;;;;;;20.25;4.72;;;;;;;-149.78;100.00;50289.56;5054643;28;20031;-72
2022/05/08 07:13:58;;;;;;;20.65;4.63;;;;;;;-149.78;100.00;50275.88;5053154;28;20048;-72
2022/05/08 07:16:23;;;;;;;26.00;4.60;;;;;;;-149.78;100.00;50275.88;5065127;28;20041;-72
2022/05/08 07:18:49;;;;;;;20.00;4.60;;;;;;;-149.78;100.00;50287.59;5055983;28;20053;-70
2022/05/08 07:21:16;;;;;;;26.60;4.72;;;;;;;-149.78;100.00;50287.59;5038344;28;20028;-72
2022/05/08 07:23:42;;;;;;;24.20;4.75;;;;;;;-149.78;100.00;50264.13;5065424;28;20063;-71
2022/05/08 07:26:08;;;;;;;27.05;5.60;;;;;;;-149.78;100.00;50301.28;5067022;28;20028;-72
2022/05/08 07:28:34;;;;;;;21.58;4.75;;;;;;;-149.78;100.00;50260.22;5034975;28;20048;-71
2022/05/08 07:31:01;;;;;;;24.27;5.22;;;;;;;-149.78;100.00;50264.13;5065816;28;20120;-74
2022/05/08 07:33:29;;;;;;;21.20;5.13;;;;;;;-149.78;100.00;50283.69;5067702;28;20030;-71
2022/05/08 07:36:12;;;;;;;20.65;5.47;;;;;;;-149.78;100.00;50299.34;5071161;28;20037;-73
2022/05/08 07:38:42;;;;;;;27.15;5.53;;;;;;;-149.78;100.00;50279.78;5060651;28;20036;-69
2022/05/08 07:41:10;;;;;;;19.77;4.40;;;;;;;-149.78;100.00;50254.34;5050820;28;20066;-70
2022/05/08 07:43:37;;;;;;;17.83;4.57;;;;;;;-149.78;100.00;50244.59;5065054;28;20057;-70
2022/05/08 07:46:04;;;;;;;21.33;4.35;;;;;;;-149.78;100.00;50209.38;5072234;28;20111;-70
2022/05/08 07:48:30;;;;;;;17.88;4.85;;;;;;;-149.78;100.00;50232.84;5068871;28;20411;-70
2022/05/08 07:50:57;;;;;;;26.67;4.00;;;;;;;-149.78;100.00;50172.22;5082629;28;20024;-70
2022/05/08 07:53:23;;;;;;;17.55;4.20;;;;;;;-149.78;100.00;50150.72;5056419;28;20116;-70
2022/05/08 07:55:51;;;;;;;19.48;4.35;;;;;;;-149.78;100.00;50209.38;5061536;28;20057;-71
2022/05/08 07:58:18;;;;;;;19.60;4.22;;;;;;;-149.78;100.00;50217.19;5087542;28;20036;-70
2022/05/08 08:00:44;;;;;;;18.52;4.18;;;;;;;-149.78;100.00;50262.19;5070506;28;20033;-70
2022/05/08 08:03:09;;;;;;;19.27;5.10;;;;;;;-149.78;100.00;50215.25;5059562;28;20040;-71
2022/05/08 08:05:35;;;;;;;20.33;5.47;;;;;;;-149.78;100.00;50158.53;5062490;28;20033;-70
2022/05/08 08:08:01;;;;;;;21.25;4.65;;;;;;;-149.78;100.00;50197.66;5069144;28;20107;-71
2022/05/08 08:10:26;;;;;;;20.38;4.43;;;;;;;-149.78;100.00;50164.41;5058680;28;20029;-71
2022/05/08 08:12:52;;;;;;;13.77;4.10;;;;;;;-149.78;100.00;50170.25;5067706;28;20032;-71
2022/05/08 08:15:18;;;;;;;22.75;4.30;;;;;;;-149.78;100.00;50138.97;5054028;28;20583;-71
2022/05/08 08:17:43;;;;;;;20.10;3.65;;;;;;;-149.78;100.00;50138.97;5058789;28;20040;-71
2022/05/08 08:20:09;;;;;;;17.55;4.50;;;;;;;-149.78;100.00;50201.56;5049749;28;20033;-71
2022/05/08 08:22:35;;;;;;;16.90;4.78;;;;;;;-149.78;100.00;50201.56;5065156;28;20028;-70
2022/05/08 08:25:02;;;;;;;23.27;4.25;;;;;;;-149.78;100.00;50209.38;5052076;28;20028;-71
2022/05/08 08:27:28;;;;;;;14.90;4.28;;;;;;;-149.78;100.00;50115.50;5056453;28;20050;-71
2022/05/08 08:29:54;;;;;;;16.45;3.80;;;;;;;-149.78;100.00;50178.09;5061309;28;20025;-71
2022/05/08 08:32:23;;;;;;;21.63;5.38;;;;;;;-149.78;100.00;50150.72;5059096;28;20036;-71
2022/05/08 08:34:49;;;;;;;20.30;4.28;;;;;;;-149.78;100.00;50135.06;5056088;28;20048;-71
2022/05/08 08:37:15;;;;;;;16.17;3.92;;;;;;;-149.78;100.00;50146.81;5058646;28;20040;-71
2022/05/08 08:39:42;;;;;;;15.95;3.97;;;;;;;-149.78;100.00;50127.25;5059011;28;20041;-71
2022/05/08 08:42:30;;;;;;;21.30;5.15;;;;;;;-149.78;100.00;50129.19;5062797;28;20041;-71
2022/05/08 08:47:49;;;;;;;24.55;5.15;;;;;;;-149.78;100.00;50117.47;5059824;28;20025;-71
2022/05/08 08:50:17;;;;;;;19.70;4.70;;;;;;;-149.78;100.00;50064.66;5065430;28;20032;-72
2022/05/08 08:52:44;;;;;;;12.65;4.15;;;;;;;-149.78;100.00;50146.81;5060914;28;20036;-71
2022/05/08 08:55:09;;;;;;;17.08;4.43;;;;;;;-149.78;100.00;50123.34;5068785;28;20119;-71
2022/05/08 08:57:36;;;;;;;19.75;4.50;;;;;;;-149.78;100.00;50142.88;5053675;28;20115;-70
2022/05/08 09:00:04;;;;;;;12.73;4.78;;;;;;;-149.78;100.00;50115.50;5058190;28;20575;-70
2022/05/08 09:02:30;;;;;;;29.92;4.70;;;;;;;-149.78;100.00;50101.81;5069259;28;20032;-71
2022/05/08 09:04:58;;;;;;;13.38;4.07;;;;;;;-149.78;100.00;50070.53;5057509;28;20079;-71
2022/05/08 09:08:08;;;;;;;16.02;4.32;;;;;;;-149.78;100.00;50072.50;5056384;28;20028;-71
2022/05/08 09:10:36;;;;;;;14.70;4.20;;;;;;;-149.78;100.00;50050.97;5068676;28;20045;-71
2022/05/08 09:13:06;;;;;;;15.57;4.93;;;;;;;-149.78;100.00;50076.41;5061841;28;20476;-71
2022/05/08 09:15:34;;;;;;;13.43;4.55;;;;;;;-149.78;100.00;50119.41;5059249;28;20091;-71
2022/05/08 09:18:06;;;;;;;18.15;4.60;;;;;;;-149.78;100.00;50099.88;5060514;28;20041;-71
2022/05/08 09:20:31;;;;;;;;;;;;;;;-149.78;100.00;50056.84;5056225;28;20537;-71
2022/05/08 09:23:06;;;;;;;14.43;4.15;;;;;;;-149.78;100.00;50111.59;5055233;28;20003;-71
2022/05/08 09:25:46;;;;;;;16.42;3.97;;;;;;;-149.78;100.00;50107.69;5058496;28;20033;-71
2022/05/08 09:28:13;;;;;;;15.18;4.93;;;;;;;-149.78;100.00;50111.59;5061546;28;20087;-71
2022/05/08 09:31:02;;;;;;;20.05;4.45;;;;;;;-149.78;100.00;50103.78;5051935;28;20116;-71
2022/05/08 09:33:41;;;;;;;18.70;4.63;;;;;;;-149.78;100.00;50049.03;5057154;28;20024;-71
2022/05/08 09:36:24;;;;;;;14.23;4.60;;;;;;;-149.78;100.00;50021.63;5054372;28;20040;-71
2022/05/08 09:38:57;;;;;;;17.35;3.88;;;;;;;-149.78;100.00;50064.66;5061860;28;20036;-71
2022/05/08 09:41:27;;;;;;;22.52;4.53;;;;;;;-149.78;100.00;50125.28;5058854;28;20037;-71
2022/05/08 09:44:14;;;;;;;14.27;4.57;;;;;;;-149.78;100.00;50123.34;5056021;28;20677;-71
2022/05/08 09:46:45;;;;;;;17.50;3.95;;;;;;;-149.78;100.00;50164.41;5049696;28;20045;-71
2022/05/08 09:49:12;;;;;;;17.83;4.43;;;;;;;-149.78;100.00;50084.22;5059754;28;20507;-71
2022/05/08 09:51:41;;;;;;;15.82;4.38;;;;;;;-149.78;100.00;50039.25;5058503;28;20029;-71
2022/05/08 09:54:08;;;;;;;10.80;4.20;;;;;;;-149.78;100.00;50064.66;5055043;28;20024;-70
2022/05/08 09:56:35;;;;;;;12.27;3.83;;;;;;;-149.78;90.53;50095.94;5056425;28;20358;-70
2022/05/08 09:59:01;;;;;;;13.27;4.45;;;;;;;-149.78;100.00;50107.69;5059864;28;20032;-70
2022/05/08 10:01:27;;;;;;;14.70;4.05;;;;;;;-149.78;100.00;50103.78;5058957;28;20033;-70
2022/05/08 10:03:55;;;;;;;23.60;4.68;;;;;;;-149.78;100.00;50119.41;5051075;28;20064;-70
2022/05/08 10:06:23;;;;;;;16.92;4.68;;;;;;;-149.78;100.00;50158.53;5071829;28;20098;-70
2022/05/08 10:08:49;;;;;;;17.63;5.20;;;;;;;-149.78;100.00;50111.59;5071596;28;20383;-70
2022/05/08 10:14:07;;;;;;;14.77;4.63;;;;;;;-149.78;100.00;50150.72;5060294;28;20178;-70
2022/05/08 10:16:58;;;;;;;17.45;5.03;;;;;;;-149.78;100.00;50103.78;5062255;28;20380;-70
2022/05/08 10:19:45;;;;;;;17.35;5.25;;;;;;;-149.78;100.00;50127.25;5057397;28;20048;-70
2022/05/08 10:22:13;;;;;;;14.40;4.80;;;;;;;-149.78;98.32;50099.88;5059772;28;20417;-70
2022/05/08 10:24:47;;;;;;;21.17;4.97;;;;;;;-149.78;92.92;50078.34;5054863;28;20033;-70
2022/05/08 10:27:23;;;;;;;11.00;4.38;;;;;;;-149.78;90.69;50092.03;5055439;28;20037;-70
2022/05/08 10:29:52;;;;;;;16.80;4.93;;;;;;;-149.78;99.74;50080.31;5056291;28;20051;-70
2022/05/08 10:32:28;;;;;;;12.32;4.80;;;;;;;-149.78;100.00;50119.41;5059233;28;20052;-70
2022/05/08 10:35:13;;;;;;;14.63;4.32;;;;;;;-149.78;94.23;50052.94;5059046;28;20041;-70
2022/05/08 10:37:42;;;;;;;18.35;4.68;;;;;;;-149.78;89.05;50095.94;5057402;28;20079;-69
2022/05/08 10:40:23;;;;;;;16.13;4.60;;;;;;;-149.78;100.00;50123.34;5057789;28;20179;-70
2022/05/08 10:42:49;;;;;;;15.50;4.43;;;;;;;-149.78;98.97;50138.97;5074585;28;20028;-70
2022/05/08 10:45:45;;;;;;;16.98;4.93;;;;;;;-149.78;100.00;50127.25;5074609;28;20398;-70
2022/05/08 10:48:25;;;;;;;15.15;4.50;;;;;;;-149.78;100.00;50142.88;5066595;28;20451;-69
2022/05/08 10:50:54;;;;;;;15.07;4.57;;;;;;;-149.78;100.00;50092.03;5069216;28;20040;-69
2022/05/08 10:53:27;;;;;;;10.63;3.88;;;;;;;-149.78;94.48;50088.13;5065179;28;20060;-70
2022/05/08 10:56:00;;;;;;;17.20;4.25;;;;;;;-149.78;98.65;50121.38;5063747;28;20044;-71
2022/05/08 10:58:26;;;;;;;19.20;5.07;;;;;;;-149.78;100.00;50109.66;5066780;28;20032;-73
2022/05/08 11:00:57;;;;;;;19.98;4.20;;;;;;;-149.78;100.00;50142.88;5066715;28;20059;-69
2022/05/08 11:03:23;;;;;;;20.10;4.60;;;;;;;-149.78;100.00;50123.34;5058102;28;21246;-68
2022/05/08 11:05:49;;;;;;;17.75;4.32;;;;;;;-149.78;100.00;50158.53;5045838;28;20043;-70
2022/05/08 11:08:22;;;;;;;14.73;3.95;;;;;;;-149.78;100.00;50111.59;5046522;28;20044;-70
2022/05/08 11:10:55;;;;;;;;;;;;;;;-149.78;100.00;50137.03;5061667;28;20017;-71
2022/05/08 11:13:22;;;;;;;16.27;4.90;;;;;;;-149.78;100.00;50138.97;5069884;28;19919;-73
2022/05/08 11:15:49;;;;;;;18.13;4.20;;;;;;;-149.78;100.00;50158.53;5073110;28;20032;-72
2022/05/08 11:18:16;;;;;;;15.65;4.60;;;;;;;-149.78;100.00;50170.25;5066988;28;20029;-72
2022/05/08 11:20:53;;;;;;;19.70;5.13;;;;;;;-149.78;100.00;50150.72;5067100;28;20033;-73
2022/05/08 11:23:21;;;;;;;20.75;4.35;;;;;;;-149.78;100.00;50168.31;5065870;28;20020;-73
2022/05/08 11:25:49;;;;;;;15.68;3.80;;;;;;;-149.78;97.23;50150.72;5066077;28;20056;-74